createdAt,value
2022-10-18T00:01:24.141Z,46.93
2022-10-18T00:07:17.624Z,44.60
2022-10-18T00:09:56.511Z,45.13
2022-10-18T00:18:30.978Z,42.87
2022-10-18T00:21:26.161Z,41.57
2022-10-18T00:27:02.725Z,42.13
2022-10-18T00:32:42.409Z,39.23
2022-10-18T00:35:34.597Z,36.37
2022-10-18T00:38:24.778Z,36.43
2022-10-18T00:41:13.495Z,35.40
2022-10-18T00:47:16.545Z,36.70
2022-10-18T00:50:09.220Z,37.93
2022-10-18T00:55:55.198Z,38.60
2022-10-18T00:58:40.051Z,37.77
2022-10-18T01:01:18.983Z,36.30
2022-10-18T01:04:01.367Z,37.40
2022-10-18T01:06:53.132Z,36.40
2022-10-18T01:09:37.441Z,36.93
2022-10-18T01:12:30.537Z,37.23
2022-10-18T01:15:17.662Z,37.53
2022-10-18T01:18:11.218Z,35.13
2022-10-18T01:21:48.873Z,35.03
2022-10-18T01:24:57.120Z,35.77
2022-10-18T01:28:02.343Z,35.33
2022-10-18T01:31:03.617Z,33.60
2022-10-18T01:33:47.506Z,34.87
2022-10-18T01:36:35.804Z,34.03
2022-10-18T01:42:33.202Z,31.03
2022-10-18T01:45:19.929Z,31.60
2022-10-18T01:48:43.763Z,29.63
2022-10-18T01:51:49.309Z,33.03
2022-10-18T01:54:45.771Z,32.37
2022-10-18T01:57:37.560Z,31.53
2022-10-18T02:00:19.006Z,31.57
2022-10-18T02:03:03.216Z,31.30
2022-10-18T02:05:57.227Z,31.37
2022-10-18T02:12:12.015Z,32.07
2022-10-18T02:14:59.747Z,30.87
2022-10-18T02:17:40.125Z,31.47
2022-10-18T02:20:52.063Z,32.33
2022-10-18T02:23:45.209Z,31.77
2022-10-18T02:26:26.681Z,32.60
2022-10-18T02:29:09.867Z,32.73
2022-10-18T02:31:53.807Z,31.63
2022-10-18T02:34:35.634Z,32.05
2022-10-18T02:37:17.771Z,30.80
2022-10-18T02:40:00.771Z,31.73
2022-10-18T02:42:47.635Z,31.10
2022-10-18T02:45:46.018Z,33.05
2022-10-18T02:48:27.688Z,34.88
2022-10-18T02:51:06.907Z,34.95
2022-10-18T02:53:45.508Z,35.38
2022-10-18T02:56:23.732Z,35.10
2022-10-18T02:59:03.072Z,36.28
2022-10-18T03:01:45.726Z,34.97
2022-10-18T03:04:34.764Z,34.28
2022-10-18T03:10:11.734Z,32.85
2022-10-18T03:12:46.974Z,35.90
2022-10-18T03:15:27.068Z,36.27
2022-10-18T03:18:03.970Z,36.43
2022-10-18T03:20:39.383Z,39.20
2022-10-18T03:23:14.263Z,39.90
2022-10-18T03:25:51.039Z,41.00
2022-10-18T03:28:26.991Z,41.17
2022-10-18T03:31:06.001Z,40.57
2022-10-18T03:33:41.750Z,42.93
2022-10-18T03:36:17.021Z,38.87
2022-10-18T03:38:52.562Z,41.73
2022-10-18T03:41:28.500Z,41.47
2022-10-18T03:44:02.693Z,43.93
2022-10-18T03:46:38.122Z,48.27
2022-10-18T03:49:13.748Z,46.70
2022-10-18T03:51:50.609Z,46.00
2022-10-18T03:54:25.748Z,46.93
2022-10-18T03:57:02.826Z,49.50
2022-10-18T03:59:39.751Z,49.60
2022-10-18T04:02:14.682Z,49.60
2022-10-18T04:04:49.620Z,49.37
2022-10-18T04:07:27.466Z,48.77
2022-10-18T04:10:06.728Z,50.90
2022-10-18T04:12:47.792Z,52.30
2022-10-18T04:15:22.886Z,52.90
2022-10-18T04:17:58.536Z,51.83
2022-10-18T04:20:39.039Z,53.67
2022-10-18T04:23:16.974Z,53.67
2022-10-18T04:25:53.001Z,56.07
2022-10-18T04:28:32.711Z,53.73
2022-10-18T04:31:08.214Z,55.67
2022-10-18T04:33:43.926Z,55.50
2022-10-18T04:36:20.257Z,57.03
2022-10-18T04:39:12.954Z,56.83
2022-10-18T04:41:52.232Z,59.50
2022-10-18T04:44:32.817Z,58.63
2022-10-18T04:47:16.310Z,57.63
2022-10-18T04:49:51.930Z,57.73
2022-10-18T04:52:26.691Z,57.93
2022-10-18T04:55:02.008Z,58.60
2022-10-18T04:57:37.136Z,60.10
2022-10-18T05:00:18.500Z,58.67
2022-10-18T05:03:01.618Z,59.50
2022-10-18T05:05:49.609Z,59.90
2022-10-18T05:08:36.921Z,58.77
2022-10-18T05:11:15.526Z,60.87
2022-10-18T05:16:49.979Z,53.60
2022-10-18T05:19:27.030Z,53.77
2022-10-18T05:22:03.265Z,54.77
2022-10-18T05:24:42.025Z,53.30
2022-10-18T05:27:25.573Z,51.03
2022-10-18T05:30:05.460Z,46.70
2022-10-18T05:32:48.234Z,51.77
2022-10-18T05:35:26.154Z,56.07
2022-10-18T05:38:01.389Z,53.90
2022-10-18T05:40:38.060Z,56.60
2022-10-18T05:43:13.671Z,53.90
2022-10-18T05:45:57.092Z,55.13
2022-10-18T05:48:35.847Z,56.60
2022-10-18T05:51:12.838Z,54.83
2022-10-18T05:53:49.490Z,60.87
2022-10-18T05:56:24.554Z,56.83
2022-10-18T05:59:00.257Z,58.27
2022-10-18T06:01:38.306Z,58.40
2022-10-18T06:04:21.954Z,57.57
2022-10-18T06:07:02.741Z,58.93
2022-10-18T06:09:44.337Z,41.70
2022-10-18T06:12:24.316Z,43.17
2022-10-18T06:15:01.527Z,45.40
2022-10-18T06:17:42.037Z,37.53
2022-10-18T06:20:22.628Z,38.67
2022-10-18T06:23:00.833Z,37.90
2022-10-18T06:25:40.498Z,37.27
2022-10-18T06:28:16.439Z,38.60
2022-10-18T06:31:05.793Z,40.87
2022-10-18T06:33:41.271Z,40.80
2022-10-18T06:36:23.828Z,43.53
2022-10-18T06:39:01.260Z,46.07
2022-10-18T06:41:39.466Z,46.97
2022-10-18T06:44:27.110Z,46.47
2022-10-18T06:47:05.048Z,45.70
2022-10-18T06:49:41.179Z,45.07
2022-10-18T06:52:22.131Z,39.93
2022-10-18T06:54:58.502Z,39.43
2022-10-18T06:57:39.160Z,41.87
2022-10-18T07:00:24.445Z,42.67
2022-10-18T07:03:10.674Z,43.20
2022-10-18T07:05:56.581Z,43.40
2022-10-18T07:08:39.504Z,45.57
2022-10-18T07:11:18.756Z,43.87
2022-10-18T07:13:55.454Z,41.83
2022-10-18T07:16:31.600Z,43.20
2022-10-18T07:19:09.849Z,47.97
2022-10-18T07:21:46.674Z,49.67
2022-10-18T07:24:28.566Z,48.97
2022-10-18T07:27:05.818Z,50.07
2022-10-18T07:29:44.401Z,47.73
2022-10-18T07:32:25.246Z,47.20
2022-10-18T07:35:04.330Z,44.33
2022-10-18T07:37:39.619Z,43.13
2022-10-18T07:40:24.204Z,45.80
2022-10-18T07:43:04.500Z,47.77
2022-10-18T07:45:41.118Z,45.60
2022-10-18T07:48:16.227Z,45.53
2022-10-18T07:50:54.607Z,43.20
2022-10-18T07:53:30.297Z,43.67
2022-10-18T07:56:18.751Z,44.30
2022-10-18T07:58:57.655Z,49.70
2022-10-18T08:01:33.871Z,47.33
2022-10-18T08:04:15.495Z,45.70
2022-10-18T08:06:52.505Z,44.60
2022-10-18T08:09:27.622Z,47.60
2022-10-18T08:12:09.369Z,45.87
2022-10-18T08:14:48.564Z,47.50
2022-10-18T08:17:25.246Z,45.07
2022-10-18T08:20:11.693Z,46.30
2022-10-18T08:22:49.484Z,48.03
2022-10-18T08:25:25.800Z,47.80
2022-10-18T08:28:05.722Z,45.97
2022-10-18T08:30:44.430Z,47.17
2022-10-18T08:33:21.543Z,48.27
2022-10-18T08:36:12.456Z,46.90
2022-10-18T08:38:48.641Z,46.13
2022-10-18T08:41:54.656Z,47.30
2022-10-18T08:44:38.769Z,46.73
2022-10-18T08:47:22.098Z,44.87
2022-10-18T08:50:04.175Z,44.90
2022-10-18T08:52:49.058Z,46.07
2022-10-18T08:55:37.685Z,44.87
2022-10-18T08:58:22.106Z,45.43
2022-10-18T09:01:12.335Z,42.60
2022-10-18T09:04:11.979Z,41.47
2022-10-18T09:06:53.551Z,41.13
2022-10-18T09:09:41.145Z,41.33
2022-10-18T09:12:35.632Z,40.30
2022-10-18T09:15:38.047Z,39.07
2022-10-18T09:18:33.712Z,38.70
2022-10-18T09:21:22.376Z,40.10
2022-10-18T09:24:07.549Z,38.67
2022-10-18T09:27:08.730Z,39.97
2022-10-18T09:29:57.006Z,38.10
2022-10-18T09:32:38.545Z,39.43
2022-10-18T09:35:24.789Z,38.77
2022-10-18T09:38:07.287Z,40.07
2022-10-18T09:40:49.353Z,40.80
2022-10-18T09:43:28.451Z,39.47
2022-10-18T09:46:06.252Z,40.70
2022-10-18T09:48:49.266Z,39.53
2022-10-18T09:51:29.807Z,40.07
2022-10-18T09:54:26.003Z,41.33
2022-10-18T09:57:07.390Z,40.50
2022-10-18T09:59:54.664Z,39.03
2022-10-18T10:02:30.073Z,37.83
2022-10-18T10:05:04.741Z,39.90
2022-10-18T10:07:50.740Z,40.13
2022-10-18T10:10:28.852Z,40.47
2022-10-18T10:13:11.095Z,40.87
2022-10-18T10:15:56.879Z,40.20
2022-10-18T10:18:34.626Z,41.50
2022-10-18T10:21:12.102Z,41.13
2022-10-18T10:23:56.229Z,41.03
2022-10-18T10:26:39.523Z,41.33
2022-10-18T10:30:07.504Z,40.63
2022-10-18T10:32:53.932Z,37.63
2022-10-18T10:35:54.566Z,36.83
2022-10-18T10:38:32.608Z,38.43
2022-10-18T10:41:23.081Z,36.30
2022-10-18T10:43:59.085Z,37.67
2022-10-18T10:46:45.454Z,39.20
2022-10-18T10:49:39.606Z,39.13
2022-10-18T10:52:27.341Z,37.07
2022-10-18T10:55:16.746Z,35.87
2022-10-18T10:58:02.195Z,36.80
2022-10-18T11:00:48.087Z,35.63
2022-10-18T11:03:29.027Z,35.30
2022-10-18T11:06:05.431Z,35.17
2022-10-18T11:11:32.891Z,37.87
2022-10-18T11:14:26.476Z,40.40
2022-10-18T11:17:10.253Z,40.87
2022-10-18T11:20:12.107Z,43.17
2022-10-18T11:22:51.834Z,43.73
2022-10-18T11:25:32.760Z,44.80
2022-10-18T11:28:15.791Z,47.17
2022-10-18T11:31:01.569Z,47.67
2022-10-18T11:34:07.548Z,50.17
2022-10-18T11:37:09.747Z,49.77
2022-10-18T11:40:06.113Z,50.23
2022-10-18T11:42:53.599Z,51.13
2022-10-18T11:45:40.509Z,52.17
2022-10-18T11:48:51.118Z,54.07
2022-10-18T11:51:50.278Z,57.73
2022-10-18T11:54:59.367Z,58.17
2022-10-18T11:57:58.336Z,60.40
2022-10-18T12:00:52.587Z,59.30
2022-10-18T12:03:43.537Z,58.60
2022-10-18T12:06:22.493Z,60.03
2022-10-18T12:09:04.298Z,61.13
2022-10-18T12:11:50.224Z,61.23
2022-10-18T12:14:35.915Z,61.87
2022-10-18T12:17:42.870Z,63.80
2022-10-18T12:20:25.928Z,62.83
2022-10-18T12:23:13.645Z,61.87
2022-10-18T12:25:54.327Z,63.33
2022-10-18T12:28:39.343Z,62.03
2022-10-18T12:31:39.427Z,58.83
2022-10-18T12:34:41.154Z,60.37
2022-10-18T12:37:42.492Z,61.00
2022-10-18T12:40:22.085Z,64.57
2022-10-18T12:42:58.958Z,61.97
2022-10-18T12:45:36.731Z,63.40
2022-10-18T12:48:33.504Z,62.30
2022-10-18T12:51:23.080Z,63.33
2022-10-18T12:54:26.282Z,56.67
2022-10-18T12:57:11.376Z,57.57
2022-10-18T12:59:49.913Z,57.80
2022-10-18T13:02:33.863Z,57.97
2022-10-18T13:06:04.256Z,59.77
2022-10-18T13:08:49.652Z,57.80
2022-10-18T13:12:03.215Z,56.23
2022-10-18T13:15:24.182Z,61.70
2022-10-18T13:18:11.973Z,62.37
2022-10-18T13:20:53.902Z,62.83
2022-10-18T13:23:43.543Z,61.80
2022-10-18T13:26:35.522Z,60.47
2022-10-18T13:29:52.570Z,60.43
2022-10-18T13:32:38.727Z,59.27
2022-10-18T13:35:50.893Z,59.20
2022-10-18T13:38:52.665Z,60.13
2022-10-18T13:41:34.253Z,63.97
2022-10-18T13:44:43.189Z,60.77
2022-10-18T13:47:42.102Z,62.57
2022-10-18T13:50:51.311Z,63.03
2022-10-18T13:53:44.291Z,60.67
2022-10-18T13:57:00.285Z,58.37
2022-10-18T13:59:56.618Z,62.43
2022-10-18T14:03:31.699Z,66.80
2022-10-18T14:06:18.060Z,70.10
2022-10-18T14:09:25.750Z,71.57
2022-10-18T14:12:13.665Z,76.03
2022-10-18T14:14:53.251Z,77.03
2022-10-18T14:20:40.017Z,77.33
2022-10-18T14:23:39.135Z,73.90
2022-10-18T14:26:24.528Z,74.67
2022-10-18T14:29:12.295Z,82.40
2022-10-18T14:31:58.096Z,83.37
2022-10-18T14:34:34.660Z,85.43
2022-10-18T14:37:18.409Z,81.27
2022-10-18T14:39:59.917Z,83.83
2022-10-18T14:42:40.882Z,82.77
2022-10-18T14:45:29.347Z,83.43
2022-10-18T14:48:32.948Z,83.33
2022-10-18T14:51:12.015Z,80.90
2022-10-18T14:53:52.492Z,82.80
2022-10-18T14:56:34.242Z,83.83
2022-10-18T14:59:26.099Z,75.57
2022-10-18T15:02:09.688Z,74.73
2022-10-18T15:05:00.260Z,71.40
2022-10-18T15:07:37.857Z,66.70
2022-10-18T15:10:23.249Z,68.53
2022-10-18T15:24:34.469Z,65.90
2022-10-18T15:27:31.359Z,65.67
2022-10-18T15:38:09.022Z,64.37
2022-10-18T15:40:46.903Z,66.10
2022-10-18T15:43:43.846Z,65.90
2022-10-18T15:46:39.140Z,62.70
2022-10-18T15:49:54.796Z,64.70
2022-10-18T15:52:46.205Z,65.87
2022-10-18T15:56:01.660Z,64.73
2022-10-18T15:58:52.779Z,65.17
2022-10-18T16:01:39.657Z,66.27
2022-10-18T16:04:26.352Z,63.47
2022-10-18T16:07:02.793Z,64.47
2022-10-18T16:09:43.235Z,65.80
2022-10-18T16:12:23.565Z,65.97
2022-10-18T16:15:03.468Z,65.70
2022-10-18T16:17:42.561Z,69.10
2022-10-18T16:20:29.193Z,63.93
2022-10-18T16:23:05.629Z,64.93
2022-10-18T16:25:40.436Z,66.37
2022-10-18T16:28:25.113Z,62.93
2022-10-18T16:31:08.233Z,69.33
2022-10-18T16:33:43.869Z,64.93
2022-10-18T16:36:32.368Z,63.13
2022-10-18T16:39:15.666Z,65.43
2022-10-18T16:41:51.080Z,72.33
2022-10-18T16:44:31.927Z,69.27
2022-10-18T16:47:11.985Z,69.23
2022-10-18T16:49:49.348Z,73.40
2022-10-18T16:52:24.367Z,79.77
2022-10-18T16:55:17.701Z,87.20
2022-10-18T16:57:55.299Z,82.33
2022-10-18T17:00:31.147Z,85.07
2022-10-18T17:03:13.199Z,84.47
2022-10-18T17:05:49.009Z,87.67
2022-10-18T17:08:30.429Z,93.10
2022-10-18T17:11:11.623Z,95.53
2022-10-18T17:13:49.042Z,98.10
2022-10-18T17:17:12.394Z,94.87
2022-10-18T17:19:51.069Z,96.30
2022-10-18T17:22:25.608Z,93.43
2022-10-18T17:25:00.661Z,96.67
2022-10-18T17:27:37.301Z,94.07
2022-10-18T17:30:13.586Z,94.30
2022-10-18T17:32:48.844Z,90.60
2022-10-18T17:35:27.070Z,97.63
2022-10-18T17:38:02.812Z,97.90
2022-10-18T17:40:37.967Z,95.20
2022-10-18T17:43:14.836Z,98.83
2022-10-18T17:45:53.969Z,101.80
2022-10-18T17:48:31.546Z,99.33
2022-10-18T17:51:12.812Z,100.83
2022-10-18T17:53:48.233Z,100.03
2022-10-18T17:56:23.959Z,100.10
2022-10-18T17:58:58.609Z,97.73
2022-10-18T18:01:35.174Z,94.93
2022-10-18T18:04:10.305Z,97.10
2022-10-18T18:06:46.793Z,96.40
2022-10-18T18:09:21.462Z,96.63
2022-10-18T18:11:56.639Z,94.60
2022-10-18T18:14:30.607Z,95.97
2022-10-18T18:17:05.035Z,100.10
2022-10-18T18:19:39.223Z,101.97
2022-10-18T18:22:15.336Z,105.23
2022-10-18T18:24:49.772Z,103.80
2022-10-18T18:27:24.555Z,107.07
2022-10-18T18:29:58.390Z,105.20
2022-10-18T18:32:32.165Z,104.63
2022-10-18T18:35:06.215Z,109.20
2022-10-18T18:37:44.866Z,105.97
2022-10-18T18:40:18.307Z,108.50
2022-10-18T18:43:07.063Z,111.43
2022-10-18T18:45:53.955Z,108.03
2022-10-18T18:48:27.951Z,114.13
2022-10-18T18:51:01.597Z,118.57
2022-10-18T18:53:38.129Z,116.23
2022-10-18T18:56:17.109Z,114.37
2022-10-18T18:58:52.178Z,112.70
2022-10-18T19:01:27.720Z,115.67
2022-10-18T19:04:02.850Z,115.93
2022-10-18T19:06:39.135Z,110.50
2022-10-18T19:09:21.014Z,119.07
2022-10-18T19:11:57.883Z,116.13
2022-10-18T19:14:32.374Z,117.03
2022-10-18T19:17:08.429Z,109.70
2022-10-18T19:19:46.790Z,112.30
2022-10-18T19:22:20.609Z,115.47
2022-10-18T19:24:56.465Z,112.47
2022-10-18T19:27:30.327Z,111.60
2022-10-18T19:30:04.559Z,114.60
2022-10-18T19:32:38.575Z,115.50
2022-10-18T19:35:13.017Z,118.43
2022-10-18T19:37:46.583Z,115.37
2022-10-18T19:40:22.383Z,119.90
2022-10-18T19:42:56.724Z,122.93
2022-10-18T19:45:40.679Z,117.57
2022-10-18T19:48:14.853Z,120.43
2022-10-18T19:50:48.124Z,123.47
2022-10-18T19:53:22.143Z,119.43
2022-10-18T19:56:03.192Z,117.90
2022-10-18T19:58:37.503Z,118.30
2022-10-18T20:01:11.570Z,118.57
2022-10-18T20:03:49.377Z,117.60
2022-10-18T20:06:24.000Z,119.90
2022-10-18T20:08:58.718Z,119.80
2022-10-18T20:11:35.615Z,116.33
2022-10-18T20:14:13.949Z,118.07
2022-10-18T20:16:47.380Z,119.50
2022-10-18T20:19:21.396Z,117.37
2022-10-18T20:21:58.881Z,115.50
2022-10-18T20:24:33.126Z,114.90
2022-10-18T20:27:11.512Z,117.80
2022-10-18T20:29:45.689Z,115.67
2022-10-18T20:32:20.051Z,116.23
2022-10-18T20:34:53.838Z,117.43
2022-10-18T20:37:28.224Z,115.30
2022-10-18T20:40:02.575Z,117.83
2022-10-18T20:42:38.714Z,115.90
2022-10-18T20:45:14.223Z,118.40
2022-10-18T20:47:48.269Z,116.93
2022-10-18T20:50:22.735Z,115.27
2022-10-18T20:52:56.950Z,118.13
2022-10-18T20:55:32.308Z,114.37
2022-10-18T20:58:07.789Z,111.90
2022-10-18T21:00:42.289Z,116.63
2022-10-18T21:03:16.542Z,113.87
2022-10-18T21:05:50.502Z,114.97
2022-10-18T21:08:24.334Z,109.53
2022-10-18T21:10:58.066Z,113.73
2022-10-18T21:13:36.902Z,113.27
2022-10-18T21:16:11.075Z,111.87
2022-10-18T21:18:44.347Z,110.77
2022-10-18T21:21:19.594Z,111.67
2022-10-18T21:23:53.133Z,114.07
2022-10-18T21:26:28.473Z,117.37
2022-10-18T21:29:04.235Z,114.53
2022-10-18T21:31:41.125Z,119.40
2022-10-18T21:34:17.968Z,110.90
2022-10-18T21:36:53.224Z,114.77
2022-10-18T21:39:32.428Z,116.70
2022-10-18T21:42:07.038Z,112.53
2022-10-18T21:44:46.250Z,117.03
2022-10-18T21:47:20.474Z,114.50
2022-10-18T21:49:54.747Z,113.67
2022-10-18T21:52:29.108Z,110.37
2022-10-18T21:55:03.157Z,113.87
2022-10-18T22:00:19.981Z,112.17
2022-10-18T22:02:53.566Z,113.90
2022-10-18T22:05:28.031Z,110.80
2022-10-18T22:08:01.706Z,111.90
2022-10-18T22:10:36.029Z,115.03
2022-10-18T22:13:09.841Z,107.30
2022-10-18T22:15:45.717Z,109.13
2022-10-18T22:18:20.001Z,102.80
2022-10-18T22:20:59.632Z,97.97
2022-10-18T22:23:37.938Z,90.73
2022-10-18T22:26:14.702Z,99.13
2022-10-18T22:28:51.586Z,99.17
2022-10-18T22:31:28.884Z,95.43
2022-10-18T22:34:04.906Z,96.00
2022-10-18T22:36:39.869Z,94.53
2022-10-18T22:39:15.665Z,86.40
2022-10-18T22:41:53.355Z,84.63
2022-10-18T22:44:27.887Z,82.60
2022-10-18T22:47:03.620Z,81.93
2022-10-18T22:49:37.007Z,79.53
2022-10-18T22:52:11.439Z,85.03
2022-10-18T22:54:45.785Z,81.30
2022-10-18T22:57:19.818Z,78.30
2022-10-18T22:59:53.224Z,79.23
2022-10-18T23:02:29.412Z,90.10
2022-10-18T23:05:03.869Z,97.03
2022-10-18T23:07:39.305Z,92.40
2022-10-18T23:10:13.710Z,90.70
2022-10-18T23:12:47.662Z,85.17
2022-10-18T23:15:21.883Z,90.40
2022-10-18T23:17:57.954Z,94.80
2022-10-18T23:20:33.030Z,91.80
2022-10-18T23:23:06.803Z,91.47
2022-10-18T23:25:41.166Z,96.50
2022-10-18T23:28:15.422Z,93.17
2022-10-18T23:30:49.646Z,93.30
2022-10-18T23:33:25.931Z,98.93
2022-10-18T23:36:01.716Z,87.30
2022-10-18T23:38:35.243Z,100.07
2022-10-18T23:41:09.625Z,104.60
2022-10-18T23:43:43.090Z,91.27
2022-10-18T23:46:18.817Z,98.97
2022-10-18T23:48:55.759Z,96.10
2022-10-18T23:54:58.655Z,106.43
2022-10-18T23:57:33.275Z,105.87
